sensor_id;sensor_type;location;lat;lon;timestamp;P1;durP1;ratioP1;P2;durP2;ratioP2
1839;SDS011;920;48.944;9.148;2023-05-27T00:02:08;13.10;;;3.97;;
1839;SDS011;920;48.944;9.148;2023-05-27T00:04:34;7.30;;;3.80;;
1839;SDS011;920;48.944;9.148;2023-05-27T00:07:01;6.20;;;3.30;;
1839;SDS011;920;48.944;9.148;2023-05-27T00:09:29;5.93;;;3.10;;
1839;SDS011;920;48.944;9.148;2023-05-27T00:11:56;5.93;;;3.37;;
1839;SDS011;920;48.944;9.148;2023-05-27T00:14:23;6.10;;;3.50;;
1839;SDS011;920;48.944;9.148;2023-05-27T00:16:49;4.90;;;3.17;;
1839;SDS011;920;48.944;9.148;2023-05-27T00:19:16;5.77;;;3.10;;
1839;SDS011;920;48.944;9.148;2023-05-27T00:21:43;7.50;;;3.20;;
1839;SDS011;920;48.944;9.148;2023-05-27T00:24:10;7.53;;;3.57;;
1839;SDS011;920;48.944;9.148;2023-05-27T00:26:38;7.00;;;3.40;;
1839;SDS011;920;48.944;9.148;2023-05-27T00:29:05;6.30;;;3.13;;
1839;SDS011;920;48.944;9.148;2023-05-27T00:31:32;5.20;;;3.20;;
1839;SDS011;920;48.944;9.148;2023-05-27T00:33:59;9.13;;;3.57;;
1839;SDS011;920;48.944;9.148;2023-05-27T00:36:26;5.90;;;3.30;;
1839;SDS011;920;48.944;9.148;2023-05-27T00:38:53;7.30;;;3.27;;
1839;SDS011;920;48.944;9.148;2023-05-27T00:41:20;5.13;;;2.90;;
1839;SDS011;920;48.944;9.148;2023-05-27T00:43:48;6.83;;;3.57;;
1839;SDS011;920;48.944;9.148;2023-05-27T00:46:15;5.33;;;3.40;;
1839;SDS011;920;48.944;9.148;2023-05-27T00:48:42;5.50;;;3.27;;
1839;SDS011;920;48.944;9.148;2023-05-27T00:51:09;6.10;;;3.77;;
1839;SDS011;920;48.944;9.148;2023-05-27T00:53:36;8.40;;;3.80;;
1839;SDS011;920;48.944;9.148;2023-05-27T00:56:06;9.70;;;3.60;;
1839;SDS011;920;48.944;9.148;2023-05-27T00:58:34;9.73;;;4.40;;
1839;SDS011;920;48.944;9.148;2023-05-27T01:01:02;8.20;;;3.10;;
1839;SDS011;920;48.944;9.148;2023-05-27T01:03:29;5.50;;;3.27;;
1839;SDS011;920;48.944;9.148;2023-05-27T01:06:03;7.03;;;3.30;;
1839;SDS011;920;48.944;9.148;2023-05-27T01:08:37;6.20;;;3.73;;
1839;SDS011;920;48.944;9.148;2023-05-27T01:11:06;5.23;;;3.10;;
1839;SDS011;920;48.944;9.148;2023-05-27T01:13:35;6.17;;;3.37;;
1839;SDS011;920;48.944;9.148;2023-05-27T01:16:05;6.27;;;3.20;;
1839;SDS011;920;48.944;9.148;2023-05-27T01:18:36;8.33;;;3.57;;
1839;SDS011;920;48.944;9.148;2023-05-27T01:21:06;6.03;;;2.73;;
1839;SDS011;920;48.944;9.148;2023-05-27T01:23:42;5.73;;;3.40;;
1839;SDS011;920;48.944;9.148;2023-05-27T01:26:09;7.17;;;3.40;;
1839;SDS011;920;48.944;9.148;2023-05-27T01:28:36;7.77;;;3.50;;
1839;SDS011;920;48.944;9.148;2023-05-27T01:31:06;7.63;;;3.23;;
1839;SDS011;920;48.944;9.148;2023-05-27T01:33:38;6.73;;;3.33;;
1839;SDS011;920;48.944;9.148;2023-05-27T01:36:10;5.80;;;3.17;;
1839;SDS011;920;48.944;9.148;2023-05-27T01:38:40;7.17;;;3.30;;
1839;SDS011;920;48.944;9.148;2023-05-27T01:41:09;7.60;;;3.50;;
1839;SDS011;920;48.944;9.148;2023-05-27T01:43:36;7.43;;;3.40;;
1839;SDS011;920;48.944;9.148;2023-05-27T01:46:04;5.67;;;3.60;;
1839;SDS011;920;48.944;9.148;2023-05-27T01:48:30;7.20;;;3.47;;
1839;SDS011;920;48.944;9.148;2023-05-27T01:50:57;5.67;;;3.40;;
1839;SDS011;920;48.944;9.148;2023-05-27T01:53:25;5.43;;;3.20;;
1839;SDS011;920;48.944;9.148;2023-05-27T01:55:53;7.23;;;3.33;;
1839;SDS011;920;48.944;9.148;2023-05-27T01:58:20;7.13;;;3.77;;
1839;SDS011;920;48.944;9.148;2023-05-27T02:00:47;7.13;;;3.17;;
1839;SDS011;920;48.944;9.148;2023-05-27T02:03:15;6.43;;;3.37;;
1839;SDS011;920;48.944;9.148;2023-05-27T02:05:43;7.33;;;3.70;;
1839;SDS011;920;48.944;9.148;2023-05-27T02:08:11;7.93;;;3.50;;
1839;SDS011;920;48.944;9.148;2023-05-27T02:10:37;8.80;;;3.90;;
1839;SDS011;920;48.944;9.148;2023-05-27T02:13:06;8.70;;;3.90;;
1839;SDS011;920;48.944;9.148;2023-05-27T02:15:33;9.00;;;4.23;;
1839;SDS011;920;48.944;9.148;2023-05-27T02:18:02;6.40;;;3.20;;
1839;SDS011;920;48.944;9.148;2023-05-27T02:20:30;6.70;;;3.87;;
1839;SDS011;920;48.944;9.148;2023-05-27T02:22:57;6.10;;;3.27;;
1839;SDS011;920;48.944;9.148;2023-05-27T02:25:24;8.23;;;4.33;;
1839;SDS011;920;48.944;9.148;2023-05-27T02:27:51;7.00;;;3.07;;
1839;SDS011;920;48.944;9.148;2023-05-27T02:30:19;6.43;;;3.90;;
1839;SDS011;920;48.944;9.148;2023-05-27T02:32:46;7.47;;;3.80;;
1839;SDS011;920;48.944;9.148;2023-05-27T02:35:13;7.20;;;3.50;;
1839;SDS011;920;48.944;9.148;2023-05-27T02:37:40;7.00;;;3.13;;
1839;SDS011;920;48.944;9.148;2023-05-27T02:40:08;10.03;;;3.90;;
1839;SDS011;920;48.944;9.148;2023-05-27T02:42:36;5.70;;;2.87;;
1839;SDS011;920;48.944;9.148;2023-05-27T02:45:04;6.13;;;3.50;;
1839;SDS011;920;48.944;9.148;2023-05-27T02:47:35;6.47;;;3.80;;
1839;SDS011;920;48.944;9.148;2023-05-27T02:50:02;7.60;;;3.60;;
1839;SDS011;920;48.944;9.148;2023-05-27T02:52:29;6.43;;;3.20;;
1839;SDS011;920;48.944;9.148;2023-05-27T02:54:56;8.50;;;3.90;;
1839;SDS011;920;48.944;9.148;2023-05-27T02:57:23;7.57;;;3.80;;
1839;SDS011;920;48.944;9.148;2023-05-27T02:59:49;7.13;;;3.40;;
1839;SDS011;920;48.944;9.148;2023-05-27T03:02:16;6.70;;;3.07;;
1839;SDS011;920;48.944;9.148;2023-05-27T03:04:44;7.93;;;3.70;;
1839;SDS011;920;48.944;9.148;2023-05-27T03:07:11;8.33;;;3.93;;
1839;SDS011;920;48.944;9.148;2023-05-27T03:09:37;8.10;;;3.80;;
1839;SDS011;920;48.944;9.148;2023-05-27T03:12:04;6.90;;;3.93;;
1839;SDS011;920;48.944;9.148;2023-05-27T03:14:31;8.03;;;3.60;;
1839;SDS011;920;48.944;9.148;2023-05-27T03:16:58;6.37;;;3.63;;
1839;SDS011;920;48.944;9.148;2023-05-27T03:19:25;10.03;;;3.73;;
1839;SDS011;920;48.944;9.148;2023-05-27T03:21:53;8.00;;;3.50;;
1839;SDS011;920;48.944;9.148;2023-05-27T03:24:20;8.03;;;4.17;;
1839;SDS011;920;48.944;9.148;2023-05-27T03:26:47;9.47;;;3.70;;
1839;SDS011;920;48.944;9.148;2023-05-27T03:29:14;6.70;;;3.70;;
1839;SDS011;920;48.944;9.148;2023-05-27T03:31:41;9.10;;;3.90;;
1839;SDS011;920;48.944;9.148;2023-05-27T03:34:12;5.90;;;3.63;;
1839;SDS011;920;48.944;9.148;2023-05-27T03:36:39;8.57;;;3.63;;
1839;SDS011;920;48.944;9.148;2023-05-27T03:39:10;7.83;;;3.53;;
1839;SDS011;920;48.944;9.148;2023-05-27T03:41:40;7.53;;;4.30;;
1839;SDS011;920;48.944;9.148;2023-05-27T03:44:10;8.13;;;3.90;;
1839;SDS011;920;48.944;9.148;2023-05-27T03:46:37;11.40;;;3.30;;
1839;SDS011;920;48.944;9.148;2023-05-27T03:49:04;8.63;;;3.87;;
1839;SDS011;920;48.944;9.148;2023-05-27T03:51:31;8.63;;;3.73;;
1839;SDS011;920;48.944;9.148;2023-05-27T03:53:58;8.10;;;3.60;;
1839;SDS011;920;48.944;9.148;2023-05-27T03:56:26;7.60;;;3.43;;
1839;SDS011;920;48.944;9.148;2023-05-27T03:58:52;7.30;;;3.87;;
1839;SDS011;920;48.944;9.148;2023-05-27T04:01:20;7.80;;;3.30;;
1839;SDS011;920;48.944;9.148;2023-05-27T04:03:46;7.30;;;3.70;;
1839;SDS011;920;48.944;9.148;2023-05-27T04:06:13;8.17;;;4.07;;
1839;SDS011;920;48.944;9.148;2023-05-27T04:08:40;7.43;;;3.70;;
1839;SDS011;920;48.944;9.148;2023-05-27T04:11:09;7.60;;;3.30;;
1839;SDS011;920;48.944;9.148;2023-05-27T04:13:38;9.20;;;3.57;;
1839;SDS011;920;48.944;9.148;2023-05-27T04:16:05;8.13;;;3.80;;
1839;SDS011;920;48.944;9.148;2023-05-27T04:18:32;6.40;;;3.63;;
1839;SDS011;920;48.944;9.148;2023-05-27T04:20:59;7.97;;;3.60;;
1839;SDS011;920;48.944;9.148;2023-05-27T04:23:26;7.53;;;3.33;;
1839;SDS011;920;48.944;9.148;2023-05-27T04:25:54;8.93;;;3.70;;
1839;SDS011;920;48.944;9.148;2023-05-27T04:28:24;8.50;;;3.33;;
1839;SDS011;920;48.944;9.148;2023-05-27T04:30:52;8.63;;;4.00;;
1839;SDS011;920;48.944;9.148;2023-05-27T04:33:29;7.13;;;3.30;;
1839;SDS011;920;48.944;9.148;2023-05-27T04:35:56;6.03;;;3.50;;
1839;SDS011;920;48.944;9.148;2023-05-27T04:38:26;9.50;;;3.30;;
1839;SDS011;920;48.944;9.148;2023-05-27T04:41:01;7.03;;;3.60;;
1839;SDS011;920;48.944;9.148;2023-05-27T04:43:55;7.40;;;3.60;;
1839;SDS011;920;48.944;9.148;2023-05-27T04:46:28;6.97;;;3.33;;
1839;SDS011;920;48.944;9.148;2023-05-27T04:48:55;6.47;;;3.20;;
1839;SDS011;920;48.944;9.148;2023-05-27T04:51:22;6.97;;;3.20;;
1839;SDS011;920;48.944;9.148;2023-05-27T04:53:49;6.40;;;3.60;;
1839;SDS011;920;48.944;9.148;2023-05-27T04:56:18;6.30;;;3.50;;
1839;SDS011;920;48.944;9.148;2023-05-27T04:58:45;8.63;;;3.70;;
1839;SDS011;920;48.944;9.148;2023-05-27T05:01:16;7.77;;;3.80;;
1839;SDS011;920;48.944;9.148;2023-05-27T05:03:54;6.37;;;3.43;;
1839;SDS011;920;48.944;9.148;2023-05-27T05:06:40;6.60;;;3.47;;
1839;SDS011;920;48.944;9.148;2023-05-27T05:09:08;7.17;;;3.70;;
1839;SDS011;920;48.944;9.148;2023-05-27T05:11:37;7.60;;;3.50;;
1839;SDS011;920;48.944;9.148;2023-05-27T05:14:06;6.17;;;2.67;;
1839;SDS011;920;48.944;9.148;2023-05-27T05:16:33;5.87;;;3.30;;
1839;SDS011;920;48.944;9.148;2023-05-27T05:19:01;10.20;;;3.43;;
1839;SDS011;920;48.944;9.148;2023-05-27T05:21:32;6.67;;;3.60;;
1839;SDS011;920;48.944;9.148;2023-05-27T05:23:59;5.60;;;3.10;;
1839;SDS011;920;48.944;9.148;2023-05-27T05:26:26;9.20;;;3.53;;
1839;SDS011;920;48.944;9.148;2023-05-27T05:28:52;9.07;;;3.60;;
1839;SDS011;920;48.944;9.148;2023-05-27T05:31:19;7.37;;;4.00;;
1839;SDS011;920;48.944;9.148;2023-05-27T05:33:46;6.43;;;3.13;;
1839;SDS011;920;48.944;9.148;2023-05-27T05:36:15;8.40;;;4.10;;
1839;SDS011;920;48.944;9.148;2023-05-27T05:38:51;8.07;;;3.80;;
1839;SDS011;920;48.944;9.148;2023-05-27T05:41:18;7.10;;;3.63;;
1839;SDS011;920;48.944;9.148;2023-05-27T05:43:45;7.20;;;3.90;;
1839;SDS011;920;48.944;9.148;2023-05-27T05:46:12;6.60;;;3.30;;
1839;SDS011;920;48.944;9.148;2023-05-27T05:48:40;8.53;;;3.27;;
1839;SDS011;920;48.944;9.148;2023-05-27T05:51:10;8.00;;;3.53;;
1839;SDS011;920;48.944;9.148;2023-05-27T05:53:38;6.87;;;3.20;;
1839;SDS011;920;48.944;9.148;2023-05-27T05:56:05;6.87;;;3.90;;
1839;SDS011;920;48.944;9.148;2023-05-27T05:58:32;8.97;;;3.80;;
1839;SDS011;920;48.944;9.148;2023-05-27T06:00:59;6.80;;;3.27;;
1839;SDS011;920;48.944;9.148;2023-05-27T06:03:35;7.10;;;3.20;;
1839;SDS011;920;48.944;9.148;2023-05-27T06:06:05;11.23;;;4.27;;
1839;SDS011;920;48.944;9.148;2023-05-27T06:08:39;7.57;;;3.77;;
1839;SDS011;920;48.944;9.148;2023-05-27T06:11:12;7.70;;;3.87;;
1839;SDS011;920;48.944;9.148;2023-05-27T06:13:41;6.20;;;3.00;;
1839;SDS011;920;48.944;9.148;2023-05-27T06:16:11;5.87;;;3.43;;
1839;SDS011;920;48.944;9.148;2023-05-27T06:18:38;7.50;;;3.80;;
1839;SDS011;920;48.944;9.148;2023-05-27T06:21:05;8.47;;;3.87;;
1839;SDS011;920;48.944;9.148;2023-05-27T06:23:53;9.23;;;3.90;;
1839;SDS011;920;48.944;9.148;2023-05-27T06:26:22;9.80;;;3.37;;
1839;SDS011;920;48.944;9.148;2023-05-27T06:28:52;8.80;;;3.77;;
1839;SDS011;920;48.944;9.148;2023-05-27T06:31:19;6.60;;;3.57;;
1839;SDS011;920;48.944;9.148;2023-05-27T06:33:46;6.47;;;3.60;;
1839;SDS011;920;48.944;9.148;2023-05-27T06:36:13;8.30;;;4.07;;
1839;SDS011;920;48.944;9.148;2023-05-27T06:38:41;8.60;;;3.57;;
1839;SDS011;920;48.944;9.148;2023-05-27T06:41:09;8.30;;;4.00;;
1839;SDS011;920;48.944;9.148;2023-05-27T06:43:39;9.90;;;3.53;;
1839;SDS011;920;48.944;9.148;2023-05-27T06:46:20;8.00;;;3.50;;
1839;SDS011;920;48.944;9.148;2023-05-27T06:48:58;8.37;;;3.43;;
1839;SDS011;920;48.944;9.148;2023-05-27T06:51:25;8.87;;;4.00;;
1839;SDS011;920;48.944;9.148;2023-05-27T06:53:54;7.57;;;3.80;;
1839;SDS011;920;48.944;9.148;2023-05-27T06:56:29;7.90;;;4.00;;
1839;SDS011;920;48.944;9.148;2023-05-27T06:59:16;7.73;;;3.60;;
1839;SDS011;920;48.944;9.148;2023-05-27T07:01:46;7.50;;;3.60;;
1839;SDS011;920;48.944;9.148;2023-05-27T07:04:14;7.77;;;3.70;;
1839;SDS011;920;48.944;9.148;2023-05-27T07:06:49;5.80;;;3.17;;
1839;SDS011;920;48.944;9.148;2023-05-27T07:09:16;9.50;;;4.40;;
1839;SDS011;920;48.944;9.148;2023-05-27T07:11:44;7.80;;;3.63;;
1839;SDS011;920;48.944;9.148;2023-05-27T07:14:20;8.23;;;3.57;;
1839;SDS011;920;48.944;9.148;2023-05-27T07:16:47;8.07;;;3.50;;
1839;SDS011;920;48.944;9.148;2023-05-27T07:19:13;7.40;;;3.87;;
1839;SDS011;920;48.944;9.148;2023-05-27T07:21:46;7.23;;;4.00;;
1839;SDS011;920;48.944;9.148;2023-05-27T07:24:17;8.27;;;4.00;;
1839;SDS011;920;48.944;9.148;2023-05-27T07:26:46;8.67;;;3.70;;
1839;SDS011;920;48.944;9.148;2023-05-27T07:29:13;7.90;;;3.50;;
1839;SDS011;920;48.944;9.148;2023-05-27T07:31:52;7.17;;;3.27;;
1839;SDS011;920;48.944;9.148;2023-05-27T07:34:23;8.30;;;3.27;;
1839;SDS011;920;48.944;9.148;2023-05-27T07:36:50;6.10;;;3.30;;
1839;SDS011;920;48.944;9.148;2023-05-27T07:39:17;8.17;;;3.50;;
1839;SDS011;920;48.944;9.148;2023-05-27T07:41:44;10.10;;;3.83;;
1839;SDS011;920;48.944;9.148;2023-05-27T07:44:13;6.47;;;3.50;;
1839;SDS011;920;48.944;9.148;2023-05-27T07:46:39;5.67;;;3.03;;
1839;SDS011;920;48.944;9.148;2023-05-27T07:49:07;6.20;;;3.53;;
1839;SDS011;920;48.944;9.148;2023-05-27T07:51:40;6.33;;;3.60;;
1839;SDS011;920;48.944;9.148;2023-05-27T07:54:09;6.30;;;3.60;;
1839;SDS011;920;48.944;9.148;2023-05-27T07:56:36;10.83;;;3.57;;
1839;SDS011;920;48.944;9.148;2023-05-27T07:59:02;5.87;;;3.83;;
1839;SDS011;920;48.944;9.148;2023-05-27T08:01:31;8.77;;;3.80;;
1839;SDS011;920;48.944;9.148;2023-05-27T08:03:58;8.77;;;4.27;;
1839;SDS011;920;48.944;9.148;2023-05-27T08:06:41;6.50;;;3.60;;
1839;SDS011;920;48.944;9.148;2023-05-27T08:09:28;7.23;;;4.10;;
1839;SDS011;920;48.944;9.148;2023-05-27T08:12:16;7.20;;;3.90;;
1839;SDS011;920;48.944;9.148;2023-05-27T08:15:15;6.93;;;3.73;;
1839;SDS011;920;48.944;9.148;2023-05-27T08:18:06;9.50;;;4.10;;
1839;SDS011;920;48.944;9.148;2023-05-27T08:20:51;6.23;;;3.70;;
1839;SDS011;920;48.944;9.148;2023-05-27T08:23:33;6.40;;;4.00;;
1839;SDS011;920;48.944;9.148;2023-05-27T08:26:20;5.93;;;3.77;;
1839;SDS011;920;48.944;9.148;2023-05-27T08:29:01;5.97;;;3.83;;
1839;SDS011;920;48.944;9.148;2023-05-27T08:31:54;9.60;;;3.93;;
1839;SDS011;920;48.944;9.148;2023-05-27T08:34:22;9.40;;;4.80;;
1839;SDS011;920;48.944;9.148;2023-05-27T08:36:51;8.20;;;4.60;;
1839;SDS011;920;48.944;9.148;2023-05-27T08:39:17;8.00;;;4.43;;
1839;SDS011;920;48.944;9.148;2023-05-27T08:41:51;8.40;;;4.43;;
1839;SDS011;920;48.944;9.148;2023-05-27T08:44:18;6.97;;;4.00;;
1839;SDS011;920;48.944;9.148;2023-05-27T08:46:54;7.27;;;4.00;;
1839;SDS011;920;48.944;9.148;2023-05-27T08:49:23;7.40;;;4.37;;
1839;SDS011;920;48.944;9.148;2023-05-27T08:51:50;5.97;;;4.13;;
1839;SDS011;920;48.944;9.148;2023-05-27T08:54:17;8.50;;;4.53;;
1839;SDS011;920;48.944;9.148;2023-05-27T08:56:44;8.63;;;4.47;;
1839;SDS011;920;48.944;9.148;2023-05-27T08:59:13;6.23;;;4.00;;
1839;SDS011;920;48.944;9.148;2023-05-27T09:01:40;7.93;;;4.50;;
1839;SDS011;920;48.944;9.148;2023-05-27T09:04:08;7.93;;;4.77;;
1839;SDS011;920;48.944;9.148;2023-05-27T09:06:36;6.10;;;4.00;;
1839;SDS011;920;48.944;9.148;2023-05-27T09:09:03;7.73;;;4.63;;
1839;SDS011;920;48.944;9.148;2023-05-27T09:11:32;7.67;;;5.00;;
1839;SDS011;920;48.944;9.148;2023-05-27T09:14:00;8.60;;;4.77;;
1839;SDS011;920;48.944;9.148;2023-05-27T09:16:27;6.13;;;4.40;;
1839;SDS011;920;48.944;9.148;2023-05-27T09:18:54;7.30;;;4.10;;
1839;SDS011;920;48.944;9.148;2023-05-27T09:21:23;8.37;;;4.40;;
1839;SDS011;920;48.944;9.148;2023-05-27T09:23:54;7.60;;;4.70;;
1839;SDS011;920;48.944;9.148;2023-05-27T09:26:21;6.00;;;4.23;;
1839;SDS011;920;48.944;9.148;2023-05-27T09:28:49;6.30;;;3.80;;
1839;SDS011;920;48.944;9.148;2023-05-27T09:31:15;6.30;;;4.13;;
1839;SDS011;920;48.944;9.148;2023-05-27T09:33:42;6.70;;;4.47;;
1839;SDS011;920;48.944;9.148;2023-05-27T09:36:09;6.87;;;4.57;;
1839;SDS011;920;48.944;9.148;2023-05-27T09:38:36;9.50;;;5.13;;
1839;SDS011;920;48.944;9.148;2023-05-27T09:41:04;5.40;;;4.00;;
1839;SDS011;920;48.944;9.148;2023-05-27T09:43:31;7.43;;;4.50;;
1839;SDS011;920;48.944;9.148;2023-05-27T09:45:58;7.87;;;5.20;;
1839;SDS011;920;48.944;9.148;2023-05-27T09:48:26;7.40;;;4.10;;
1839;SDS011;920;48.944;9.148;2023-05-27T09:50:55;7.20;;;4.57;;
1839;SDS011;920;48.944;9.148;2023-05-27T09:53:22;7.27;;;4.30;;
1839;SDS011;920;48.944;9.148;2023-05-27T09:55:50;6.70;;;4.10;;
1839;SDS011;920;48.944;9.148;2023-05-27T09:58:19;8.43;;;4.50;;
1839;SDS011;920;48.944;9.148;2023-05-27T10:00:46;6.07;;;4.50;;
1839;SDS011;920;48.944;9.148;2023-05-27T10:03:14;6.73;;;4.47;;
1839;SDS011;920;48.944;9.148;2023-05-27T10:05:42;8.73;;;5.23;;
1839;SDS011;920;48.944;9.148;2023-05-27T10:08:09;6.27;;;4.90;;
1839;SDS011;920;48.944;9.148;2023-05-27T10:10:37;7.47;;;5.00;;
1839;SDS011;920;48.944;9.148;2023-05-27T10:13:03;6.80;;;4.20;;
1839;SDS011;920;48.944;9.148;2023-05-27T10:15:33;6.47;;;4.30;;
1839;SDS011;920;48.944;9.148;2023-05-27T10:18:02;7.40;;;5.00;;
1839;SDS011;920;48.944;9.148;2023-05-27T10:20:31;7.70;;;5.10;;
1839;SDS011;920;48.944;9.148;2023-05-27T10:23:08;10.30;;;4.67;;
1839;SDS011;920;48.944;9.148;2023-05-27T10:25:36;5.30;;;4.43;;
1839;SDS011;920;48.944;9.148;2023-05-27T10:28:03;7.10;;;4.50;;
1839;SDS011;920;48.944;9.148;2023-05-27T10:30:30;7.73;;;4.83;;
1839;SDS011;920;48.944;9.148;2023-05-27T10:33:10;7.67;;;4.90;;
1839;SDS011;920;48.944;9.148;2023-05-27T10:35:40;5.13;;;4.60;;
1839;SDS011;920;48.944;9.148;2023-05-27T10:38:14;17.60;;;5.90;;
1839;SDS011;920;48.944;9.148;2023-05-27T10:40:41;5.40;;;4.73;;
1839;SDS011;920;48.944;9.148;2023-05-27T10:43:14;8.07;;;4.50;;
1839;SDS011;920;48.944;9.148;2023-05-27T10:45:41;7.00;;;4.60;;
1839;SDS011;920;48.944;9.148;2023-05-27T10:48:14;7.20;;;4.50;;
1839;SDS011;920;48.944;9.148;2023-05-27T10:50:49;8.80;;;4.97;;
1839;SDS011;920;48.944;9.148;2023-05-27T10:53:16;6.90;;;4.70;;
1839;SDS011;920;48.944;9.148;2023-05-27T10:55:44;7.10;;;5.07;;
1839;SDS011;920;48.944;9.148;2023-05-27T10:58:11;6.57;;;4.80;;
1839;SDS011;920;48.944;9.148;2023-05-27T11:00:38;6.80;;;5.30;;
1839;SDS011;920;48.944;9.148;2023-05-27T11:03:16;7.30;;;5.00;;
1839;SDS011;920;48.944;9.148;2023-05-27T11:05:44;5.57;;;4.67;;
1839;SDS011;920;48.944;9.148;2023-05-27T11:08:11;7.10;;;4.80;;
1839;SDS011;920;48.944;9.148;2023-05-27T11:10:39;5.93;;;4.63;;
1839;SDS011;920;48.944;9.148;2023-05-27T11:13:07;5.70;;;4.80;;
1839;SDS011;920;48.944;9.148;2023-05-27T11:15:33;6.40;;;4.37;;
1839;SDS011;920;48.944;9.148;2023-05-27T11:18:00;7.07;;;4.60;;
1839;SDS011;920;48.944;9.148;2023-05-27T11:20:35;6.80;;;5.00;;
1839;SDS011;920;48.944;9.148;2023-05-27T11:23:02;7.80;;;4.57;;
1839;SDS011;920;48.944;9.148;2023-05-27T11:25:29;6.53;;;4.67;;
1839;SDS011;920;48.944;9.148;2023-05-27T11:27:55;5.77;;;4.73;;
1839;SDS011;920;48.944;9.148;2023-05-27T11:30:23;8.53;;;5.00;;
1839;SDS011;920;48.944;9.148;2023-05-27T11:32:52;7.47;;;4.70;;
1839;SDS011;920;48.944;9.148;2023-05-27T11:35:27;7.03;;;5.13;;
1839;SDS011;920;48.944;9.148;2023-05-27T11:37:59;6.97;;;4.93;;
1839;SDS011;920;48.944;9.148;2023-05-27T11:40:33;9.13;;;5.00;;
1839;SDS011;920;48.944;9.148;2023-05-27T11:43:00;9.00;;;5.47;;
1839;SDS011;920;48.944;9.148;2023-05-27T11:45:27;8.60;;;5.00;;
1839;SDS011;920;48.944;9.148;2023-05-27T11:47:53;6.40;;;4.57;;
1839;SDS011;920;48.944;9.148;2023-05-27T11:50:21;8.20;;;5.10;;
1839;SDS011;920;48.944;9.148;2023-05-27T11:52:51;7.17;;;4.57;;
1839;SDS011;920;48.944;9.148;2023-05-27T11:55:20;6.70;;;4.90;;
1839;SDS011;920;48.944;9.148;2023-05-27T11:57:48;6.77;;;4.70;;
1839;SDS011;920;48.944;9.148;2023-05-27T12:00:15;5.67;;;4.30;;
1839;SDS011;920;48.944;9.148;2023-05-27T12:02:43;9.13;;;5.10;;
1839;SDS011;920;48.944;9.148;2023-05-27T12:05:10;7.50;;;5.30;;
1839;SDS011;920;48.944;9.148;2023-05-27T12:07:36;6.60;;;4.80;;
1839;SDS011;920;48.944;9.148;2023-05-27T12:10:06;7.00;;;5.13;;
1839;SDS011;920;48.944;9.148;2023-05-27T12:12:35;5.77;;;4.60;;
1839;SDS011;920;48.944;9.148;2023-05-27T12:15:03;7.40;;;5.13;;
1839;SDS011;920;48.944;9.148;2023-05-27T12:17:30;6.00;;;4.27;;
1839;SDS011;920;48.944;9.148;2023-05-27T12:19:57;5.97;;;4.63;;
1839;SDS011;920;48.944;9.148;2023-05-27T12:22:24;9.17;;;4.90;;
1839;SDS011;920;48.944;9.148;2023-05-27T12:24:50;7.10;;;4.70;;
1839;SDS011;920;48.944;9.148;2023-05-27T12:27:18;5.60;;;4.80;;
1839;SDS011;920;48.944;9.148;2023-05-27T12:29:46;5.60;;;4.40;;
1839;SDS011;920;48.944;9.148;2023-05-27T12:32:13;7.37;;;5.17;;
1839;SDS011;920;48.944;9.148;2023-05-27T12:34:40;7.40;;;4.70;;
1839;SDS011;920;48.944;9.148;2023-05-27T12:37:07;8.80;;;4.93;;
1839;SDS011;920;48.944;9.148;2023-05-27T12:39:34;6.70;;;4.90;;
1839;SDS011;920;48.944;9.148;2023-05-27T12:42:00;8.23;;;5.33;;
1839;SDS011;920;48.944;9.148;2023-05-27T12:44:27;6.90;;;5.00;;
1839;SDS011;920;48.944;9.148;2023-05-27T12:46:55;7.20;;;5.00;;
1839;SDS011;920;48.944;9.148;2023-05-27T12:49:22;5.90;;;4.70;;
1839;SDS011;920;48.944;9.148;2023-05-27T12:51:49;6.40;;;4.60;;
1839;SDS011;920;48.944;9.148;2023-05-27T12:54:15;5.77;;;4.40;;
1839;SDS011;920;48.944;9.148;2023-05-27T12:56:42;6.60;;;4.90;;
1839;SDS011;920;48.944;9.148;2023-05-27T12:59:09;5.60;;;4.20;;
1839;SDS011;920;48.944;9.148;2023-05-27T13:01:36;7.70;;;4.80;;
1839;SDS011;920;48.944;9.148;2023-05-27T13:04:04;5.70;;;4.07;;
1839;SDS011;920;48.944;9.148;2023-05-27T13:06:31;6.07;;;4.60;;
1839;SDS011;920;48.944;9.148;2023-05-27T13:08:58;7.33;;;4.83;;
1839;SDS011;920;48.944;9.148;2023-05-27T13:11:24;8.10;;;5.47;;
1839;SDS011;920;48.944;9.148;2023-05-27T13:13:51;8.10;;;4.77;;
1839;SDS011;920;48.944;9.148;2023-05-27T13:16:18;6.60;;;4.43;;
1839;SDS011;920;48.944;9.148;2023-05-27T13:18:45;6.80;;;4.60;;
1839;SDS011;920;48.944;9.148;2023-05-27T13:21:13;7.40;;;4.33;;
1839;SDS011;920;48.944;9.148;2023-05-27T13:23:39;6.83;;;4.53;;
1839;SDS011;920;48.944;9.148;2023-05-27T13:26:06;7.20;;;4.30;;
1839;SDS011;920;48.944;9.148;2023-05-27T13:28:33;7.10;;;4.93;;
1839;SDS011;920;48.944;9.148;2023-05-27T13:31:00;8.37;;;4.70;;
1839;SDS011;920;48.944;9.148;2023-05-27T13:33:27;6.37;;;4.60;;
1839;SDS011;920;48.944;9.148;2023-05-27T13:35:53;5.90;;;4.57;;
1839;SDS011;920;48.944;9.148;2023-05-27T13:38:21;6.77;;;4.33;;
1839;SDS011;920;48.944;9.148;2023-05-27T13:40:48;6.87;;;4.57;;
1839;SDS011;920;48.944;9.148;2023-05-27T13:43:16;6.67;;;4.70;;
1839;SDS011;920;48.944;9.148;2023-05-27T13:45:42;7.30;;;4.80;;
1839;SDS011;920;48.944;9.148;2023-05-27T13:48:09;5.40;;;4.00;;
1839;SDS011;920;48.944;9.148;2023-05-27T13:50:36;5.60;;;4.40;;
1839;SDS011;920;48.944;9.148;2023-05-27T13:53:03;6.20;;;4.10;;
1839;SDS011;920;48.944;9.148;2023-05-27T13:55:34;5.50;;;4.30;;
1839;SDS011;920;48.944;9.148;2023-05-27T13:58:02;7.83;;;4.23;;
1839;SDS011;920;48.944;9.148;2023-05-27T14:00:28;6.20;;;3.87;;
1839;SDS011;920;48.944;9.148;2023-05-27T14:02:56;5.63;;;3.67;;
1839;SDS011;920;48.944;9.148;2023-05-27T14:05:24;6.23;;;4.07;;
1839;SDS011;920;48.944;9.148;2023-05-27T14:07:51;7.43;;;4.30;;
1839;SDS011;920;48.944;9.148;2023-05-27T14:10:18;5.00;;;4.13;;
1839;SDS011;920;48.944;9.148;2023-05-27T14:12:46;6.00;;;4.07;;
1839;SDS011;920;48.944;9.148;2023-05-27T14:15:13;5.37;;;3.87;;
1839;SDS011;920;48.944;9.148;2023-05-27T14:17:40;8.00;;;4.10;;
1839;SDS011;920;48.944;9.148;2023-05-27T14:20:07;5.80;;;3.50;;
1839;SDS011;920;48.944;9.148;2023-05-27T14:22:35;5.80;;;3.53;;
1839;SDS011;920;48.944;9.148;2023-05-27T14:25:02;4.67;;;3.50;;
1839;SDS011;920;48.944;9.148;2023-05-27T14:27:30;5.13;;;3.37;;
1839;SDS011;920;48.944;9.148;2023-05-27T14:29:58;5.73;;;3.10;;
1839;SDS011;920;48.944;9.148;2023-05-27T14:32:25;5.13;;;2.90;;
1839;SDS011;920;48.944;9.148;2023-05-27T14:34:51;4.80;;;3.37;;
1839;SDS011;920;48.944;9.148;2023-05-27T14:37:20;6.97;;;3.87;;
1839;SDS011;920;48.944;9.148;2023-05-27T14:39:47;6.00;;;3.90;;
1839;SDS011;920;48.944;9.148;2023-05-27T14:42:14;4.77;;;3.40;;
1839;SDS011;920;48.944;9.148;2023-05-27T14:44:40;5.10;;;3.80;;
1839;SDS011;920;48.944;9.148;2023-05-27T14:47:09;5.03;;;3.13;;
1839;SDS011;920;48.944;9.148;2023-05-27T14:49:36;5.80;;;3.77;;
1839;SDS011;920;48.944;9.148;2023-05-27T14:52:02;7.00;;;3.57;;
1839;SDS011;920;48.944;9.148;2023-05-27T14:54:29;6.53;;;3.80;;
1839;SDS011;920;48.944;9.148;2023-05-27T14:56:56;4.53;;;3.10;;
1839;SDS011;920;48.944;9.148;2023-05-27T14:59:23;8.30;;;3.97;;
1839;SDS011;920;48.944;9.148;2023-05-27T15:01:50;5.80;;;3.60;;
1839;SDS011;920;48.944;9.148;2023-05-27T15:04:18;5.63;;;3.27;;
1839;SDS011;920;48.944;9.148;2023-05-27T15:06:44;4.90;;;3.10;;
1839;SDS011;920;48.944;9.148;2023-05-27T15:09:11;6.47;;;2.97;;
1839;SDS011;920;48.944;9.148;2023-05-27T15:11:38;7.00;;;3.27;;
1839;SDS011;920;48.944;9.148;2023-05-27T15:14:04;5.50;;;3.80;;
1839;SDS011;920;48.944;9.148;2023-05-27T15:16:31;8.50;;;3.30;;
1839;SDS011;920;48.944;9.148;2023-05-27T15:18:58;6.03;;;3.90;;
1839;SDS011;920;48.944;9.148;2023-05-27T15:21:26;4.37;;;3.20;;
1839;SDS011;920;48.944;9.148;2023-05-27T15:23:53;4.03;;;2.90;;
1839;SDS011;920;48.944;9.148;2023-05-27T15:26:20;6.97;;;3.23;;
1839;SDS011;920;48.944;9.148;2023-05-27T15:28:47;5.47;;;3.20;;
1839;SDS011;920;48.944;9.148;2023-05-27T15:31:14;4.73;;;2.73;;
1839;SDS011;920;48.944;9.148;2023-05-27T15:33:41;4.20;;;3.03;;
1839;SDS011;920;48.944;9.148;2023-05-27T15:36:07;5.47;;;3.37;;
1839;SDS011;920;48.944;9.148;2023-05-27T15:38:36;6.23;;;3.33;;
1839;SDS011;920;48.944;9.148;2023-05-27T15:41:03;4.20;;;3.03;;